sensor_id;sensor_type;location;lat;lon;timestamp;P1;durP1;ratioP1;P2;durP2;ratioP2
22131;SDS011;11232;51.748;19.390;2023-07-13T00:01:11;6.70;;;5.53;;
22131;SDS011;11232;51.748;19.390;2023-07-13T00:03:37;8.50;;;5.68;;
22131;SDS011;11232;51.748;19.390;2023-07-13T00:06:06;12.55;;;5.90;;
22131;SDS011;11232;51.748;19.390;2023-07-13T00:08:32;9.15;;;5.43;;
22131;SDS011;11232;51.748;19.390;2023-07-13T00:10:58;8.50;;;5.07;;
22131;SDS011;11232;51.748;19.390;2023-07-13T00:13:24;7.78;;;5.85;;
22131;SDS011;11232;51.748;19.390;2023-07-13T00:15:50;8.13;;;5.15;;
22131;SDS011;11232;51.748;19.390;2023-07-13T00:18:16;9.00;;;6.10;;
22131;SDS011;11232;51.748;19.390;2023-07-13T00:20:42;7.68;;;5.57;;
22131;SDS011;11232;51.748;19.390;2023-07-13T00:23:08;8.00;;;5.38;;
22131;SDS011;11232;51.748;19.390;2023-07-13T00:25:34;9.00;;;5.43;;
22131;SDS011;11232;51.748;19.390;2023-07-13T00:28:00;8.23;;;5.45;;
22131;SDS011;11232;51.748;19.390;2023-07-13T00:30:26;8.20;;;5.93;;
22131;SDS011;11232;51.748;19.390;2023-07-13T00:32:52;10.15;;;5.90;;
22131;SDS011;11232;51.748;19.390;2023-07-13T00:35:18;7.72;;;5.53;;
22131;SDS011;11232;51.748;19.390;2023-07-13T00:37:44;10.52;;;5.75;;
22131;SDS011;11232;51.748;19.390;2023-07-13T00:40:11;7.45;;;4.95;;
22131;SDS011;11232;51.748;19.390;2023-07-13T00:42:38;10.27;;;5.28;;
22131;SDS011;11232;51.748;19.390;2023-07-13T00:47:39;10.18;;;5.68;;
22131;SDS011;11232;51.748;19.390;2023-07-13T00:50:06;10.18;;;6.18;;
22131;SDS011;11232;51.748;19.390;2023-07-13T00:52:33;6.25;;;4.95;;
22131;SDS011;11232;51.748;19.390;2023-07-13T00:55:00;8.23;;;6.00;;
22131;SDS011;11232;51.748;19.390;2023-07-13T00:57:28;8.98;;;5.50;;
22131;SDS011;11232;51.748;19.390;2023-07-13T00:59:55;9.77;;;5.38;;
22131;SDS011;11232;51.748;19.390;2023-07-13T01:02:22;7.28;;;5.03;;
22131;SDS011;11232;51.748;19.390;2023-07-13T01:04:49;9.25;;;5.47;;
22131;SDS011;11232;51.748;19.390;2023-07-13T01:07:15;8.25;;;5.18;;
22131;SDS011;11232;51.748;19.390;2023-07-13T01:09:41;7.32;;;5.57;;
22131;SDS011;11232;51.748;19.390;2023-07-13T01:12:07;9.77;;;5.43;;
22131;SDS011;11232;51.748;19.390;2023-07-13T01:14:34;9.07;;;5.70;;
22131;SDS011;11232;51.748;19.390;2023-07-13T01:17:00;6.82;;;5.15;;
22131;SDS011;11232;51.748;19.390;2023-07-13T01:19:29;8.07;;;5.65;;
22131;SDS011;11232;51.748;19.390;2023-07-13T01:22:01;6.55;;;5.32;;
22131;SDS011;11232;51.748;19.390;2023-07-13T01:24:27;8.55;;;5.03;;
22131;SDS011;11232;51.748;19.390;2023-07-13T01:26:53;8.18;;;5.43;;
22131;SDS011;11232;51.748;19.390;2023-07-13T01:29:19;6.18;;;5.18;;
22131;SDS011;11232;51.748;19.390;2023-07-13T01:31:45;8.80;;;5.55;;
22131;SDS011;11232;51.748;19.390;2023-07-13T01:34:11;10.68;;;5.80;;
22131;SDS011;11232;51.748;19.390;2023-07-13T01:36:37;10.50;;;6.03;;
22131;SDS011;11232;51.748;19.390;2023-07-13T01:39:03;8.00;;;5.78;;
22131;SDS011;11232;51.748;19.390;2023-07-13T01:41:29;9.35;;;6.28;;
22131;SDS011;11232;51.748;19.390;2023-07-13T01:43:55;9.30;;;6.28;;
22131;SDS011;11232;51.748;19.390;2023-07-13T01:46:21;9.48;;;6.05;;
22131;SDS011;11232;51.748;19.390;2023-07-13T01:48:47;11.07;;;6.22;;
22131;SDS011;11232;51.748;19.390;2023-07-13T01:51:13;12.02;;;6.07;;
22131;SDS011;11232;51.748;19.390;2023-07-13T01:53:39;9.70;;;5.82;;
22131;SDS011;11232;51.748;19.390;2023-07-13T01:56:05;10.68;;;6.15;;
22131;SDS011;11232;51.748;19.390;2023-07-13T01:58:31;9.77;;;6.53;;
22131;SDS011;11232;51.748;19.390;2023-07-13T02:00:57;8.50;;;5.78;;
22131;SDS011;11232;51.748;19.390;2023-07-13T02:03:23;10.93;;;6.22;;
22131;SDS011;11232;51.748;19.390;2023-07-13T02:05:49;8.48;;;6.45;;
22131;SDS011;11232;51.748;19.390;2023-07-13T02:08:15;14.93;;;6.20;;
22131;SDS011;11232;51.748;19.390;2023-07-13T02:10:41;11.68;;;6.60;;
22131;SDS011;11232;51.748;19.390;2023-07-13T02:13:07;10.00;;;6.40;;
22131;SDS011;11232;51.748;19.390;2023-07-13T02:15:33;10.43;;;5.97;;
22131;SDS011;11232;51.748;19.390;2023-07-13T02:17:59;10.23;;;6.07;;
22131;SDS011;11232;51.748;19.390;2023-07-13T02:20:25;10.68;;;6.50;;
22131;SDS011;11232;51.748;19.390;2023-07-13T02:22:51;12.13;;;6.45;;
22131;SDS011;11232;51.748;19.390;2023-07-13T02:25:17;10.90;;;6.57;;
22131;SDS011;11232;51.748;19.390;2023-07-13T02:27:43;8.60;;;6.00;;
22131;SDS011;11232;51.748;19.390;2023-07-13T02:30:10;12.65;;;5.95;;
22131;SDS011;11232;51.748;19.390;2023-07-13T02:32:36;11.25;;;6.03;;
22131;SDS011;11232;51.748;19.390;2023-07-13T02:35:02;13.32;;;6.35;;
22131;SDS011;11232;51.748;19.390;2023-07-13T02:37:29;9.35;;;6.35;;
22131;SDS011;11232;51.748;19.390;2023-07-13T02:39:55;11.75;;;6.13;;
22131;SDS011;11232;51.748;19.390;2023-07-13T02:42:21;13.98;;;6.88;;
22131;SDS011;11232;51.748;19.390;2023-07-13T02:44:47;10.50;;;6.20;;
22131;SDS011;11232;51.748;19.390;2023-07-13T02:47:14;7.45;;;6.07;;
22131;SDS011;11232;51.748;19.390;2023-07-13T02:49:40;10.27;;;7.40;;
22131;SDS011;11232;51.748;19.390;2023-07-13T02:52:06;9.23;;;6.90;;
22131;SDS011;11232;51.748;19.390;2023-07-13T02:54:32;11.70;;;6.55;;
22131;SDS011;11232;51.748;19.390;2023-07-13T02:56:58;8.77;;;6.85;;
22131;SDS011;11232;51.748;19.390;2023-07-13T02:59:24;12.02;;;7.22;;
22131;SDS011;11232;51.748;19.390;2023-07-13T03:01:50;13.50;;;7.45;;
22131;SDS011;11232;51.748;19.390;2023-07-13T03:04:16;14.57;;;7.68;;
22131;SDS011;11232;51.748;19.390;2023-07-13T03:06:44;10.23;;;7.07;;
22131;SDS011;11232;51.748;19.390;2023-07-13T03:09:10;9.07;;;6.53;;
22131;SDS011;11232;51.748;19.390;2023-07-13T03:11:37;14.88;;;7.07;;
22131;SDS011;11232;51.748;19.390;2023-07-13T03:14:04;14.93;;;7.60;;
22131;SDS011;11232;51.748;19.390;2023-07-13T03:16:30;13.20;;;7.35;;
22131;SDS011;11232;51.748;19.390;2023-07-13T03:18:56;11.88;;;7.13;;
22131;SDS011;11232;51.748;19.390;2023-07-13T03:21:22;12.05;;;7.18;;
22131;SDS011;11232;51.748;19.390;2023-07-13T03:23:48;11.95;;;7.28;;
22131;SDS011;11232;51.748;19.390;2023-07-13T03:26:15;10.55;;;7.18;;
22131;SDS011;11232;51.748;19.390;2023-07-13T03:28:42;10.73;;;6.82;;
22131;SDS011;11232;51.748;19.390;2023-07-13T03:31:12;10.05;;;7.38;;
22131;SDS011;11232;51.748;19.390;2023-07-13T03:33:39;16.38;;;7.53;;
22131;SDS011;11232;51.748;19.390;2023-07-13T03:36:06;12.32;;;7.25;;
22131;SDS011;11232;51.748;19.390;2023-07-13T03:38:33;9.10;;;7.03;;
22131;SDS011;11232;51.748;19.390;2023-07-13T03:40:59;14.00;;;6.90;;
22131;SDS011;11232;51.748;19.390;2023-07-13T03:43:26;10.15;;;7.00;;
22131;SDS011;11232;51.748;19.390;2023-07-13T03:45:52;14.20;;;7.28;;
22131;SDS011;11232;51.748;19.390;2023-07-13T03:48:19;12.02;;;6.90;;
22131;SDS011;11232;51.748;19.390;2023-07-13T03:50:45;14.95;;;7.13;;
22131;SDS011;11232;51.748;19.390;2023-07-13T03:53:12;8.75;;;7.05;;
22131;SDS011;11232;51.748;19.390;2023-07-13T03:55:38;12.60;;;6.50;;
22131;SDS011;11232;51.748;19.390;2023-07-13T03:58:24;9.45;;;7.38;;
22131;SDS011;11232;51.748;19.390;2023-07-13T04:00:51;11.60;;;7.50;;
22131;SDS011;11232;51.748;19.390;2023-07-13T04:03:17;11.00;;;7.55;;
22131;SDS011;11232;51.748;19.390;2023-07-13T04:05:43;12.02;;;7.65;;
22131;SDS011;11232;51.748;19.390;2023-07-13T04:08:09;10.35;;;7.22;;
22131;SDS011;11232;51.748;19.390;2023-07-13T04:10:35;13.73;;;7.25;;
22131;SDS011;11232;51.748;19.390;2023-07-13T04:13:01;10.43;;;7.38;;
22131;SDS011;11232;51.748;19.390;2023-07-13T04:15:28;11.60;;;7.75;;
22131;SDS011;11232;51.748;19.390;2023-07-13T04:17:54;12.95;;;7.00;;
22131;SDS011;11232;51.748;19.390;2023-07-13T04:20:20;16.48;;;8.30;;
22131;SDS011;11232;51.748;19.390;2023-07-13T04:22:46;11.82;;;7.72;;
22131;SDS011;11232;51.748;19.390;2023-07-13T04:25:12;11.45;;;8.32;;
22131;SDS011;11232;51.748;19.390;2023-07-13T04:27:38;11.85;;;8.10;;
22131;SDS011;11232;51.748;19.390;2023-07-13T04:30:05;10.98;;;8.00;;
22131;SDS011;11232;51.748;19.390;2023-07-13T04:32:31;9.43;;;7.18;;
22131;SDS011;11232;51.748;19.390;2023-07-13T04:34:57;12.98;;;8.70;;
22131;SDS011;11232;51.748;19.390;2023-07-13T04:37:24;11.05;;;8.13;;
22131;SDS011;11232;51.748;19.390;2023-07-13T04:39:50;10.35;;;7.88;;
22131;SDS011;11232;51.748;19.390;2023-07-13T04:42:16;12.57;;;7.95;;
22131;SDS011;11232;51.748;19.390;2023-07-13T04:44:47;10.98;;;7.88;;
22131;SDS011;11232;51.748;19.390;2023-07-13T04:47:13;11.63;;;8.25;;
22131;SDS011;11232;51.748;19.390;2023-07-13T04:49:39;11.38;;;7.90;;
22131;SDS011;11232;51.748;19.390;2023-07-13T04:52:05;11.48;;;7.70;;
22131;SDS011;11232;51.748;19.390;2023-07-13T04:54:32;15.15;;;7.70;;
22131;SDS011;11232;51.748;19.390;2023-07-13T04:56:58;15.30;;;9.75;;
22131;SDS011;11232;51.748;19.390;2023-07-13T04:59:24;10.82;;;7.47;;
22131;SDS011;11232;51.748;19.390;2023-07-13T05:01:50;15.27;;;7.45;;
22131;SDS011;11232;51.748;19.390;2023-07-13T05:04:16;13.10;;;8.02;;
22131;SDS011;11232;51.748;19.390;2023-07-13T05:06:42;11.43;;;8.93;;
22131;SDS011;11232;51.748;19.390;2023-07-13T05:09:08;12.30;;;9.05;;
22131;SDS011;11232;51.748;19.390;2023-07-13T05:11:34;13.75;;;8.77;;
22131;SDS011;11232;51.748;19.390;2023-07-13T05:14:00;17.27;;;8.23;;
22131;SDS011;11232;51.748;19.390;2023-07-13T05:16:26;15.15;;;8.23;;
22131;SDS011;11232;51.748;19.390;2023-07-13T05:18:53;12.90;;;8.73;;
22131;SDS011;11232;51.748;19.390;2023-07-13T05:21:19;13.02;;;8.68;;
22131;SDS011;11232;51.748;19.390;2023-07-13T05:23:45;11.52;;;8.55;;
22131;SDS011;11232;51.748;19.390;2023-07-13T05:26:11;14.68;;;9.57;;
22131;SDS011;11232;51.748;19.390;2023-07-13T05:28:37;12.25;;;8.55;;
22131;SDS011;11232;51.748;19.390;2023-07-13T05:31:03;12.98;;;8.38;;
22131;SDS011;11232;51.748;19.390;2023-07-13T05:33:29;11.35;;;8.68;;
22131;SDS011;11232;51.748;19.390;2023-07-13T05:35:55;17.05;;;9.75;;
22131;SDS011;11232;51.748;19.390;2023-07-13T05:38:21;13.27;;;9.38;;
22131;SDS011;11232;51.748;19.390;2023-07-13T05:40:47;18.90;;;9.23;;
22131;SDS011;11232;51.748;19.390;2023-07-13T05:43:13;12.25;;;8.75;;
22131;SDS011;11232;51.748;19.390;2023-07-13T05:45:40;15.57;;;8.93;;
22131;SDS011;11232;51.748;19.390;2023-07-13T05:48:06;13.80;;;9.20;;
22131;SDS011;11232;51.748;19.390;2023-07-13T05:50:32;16.20;;;9.27;;
22131;SDS011;11232;51.748;19.390;2023-07-13T05:52:58;13.95;;;8.90;;
22131;SDS011;11232;51.748;19.390;2023-07-13T05:55:24;17.00;;;9.35;;
22131;SDS011;11232;51.748;19.390;2023-07-13T05:57:50;13.93;;;8.90;;
22131;SDS011;11232;51.748;19.390;2023-07-13T06:00:16;13.77;;;9.60;;
22131;SDS011;11232;51.748;19.390;2023-07-13T06:02:42;16.13;;;8.40;;
22131;SDS011;11232;51.748;19.390;2023-07-13T06:05:08;10.63;;;8.05;;
22131;SDS011;11232;51.748;19.390;2023-07-13T06:07:34;13.85;;;9.75;;
22131;SDS011;11232;51.748;19.390;2023-07-13T06:10:00;14.20;;;8.90;;
22131;SDS011;11232;51.748;19.390;2023-07-13T06:12:26;15.27;;;9.15;;
22131;SDS011;11232;51.748;19.390;2023-07-13T06:14:53;13.95;;;8.25;;
22131;SDS011;11232;51.748;19.390;2023-07-13T06:17:18;17.40;;;8.80;;
22131;SDS011;11232;51.748;19.390;2023-07-13T06:19:44;17.17;;;8.35;;
22131;SDS011;11232;51.748;19.390;2023-07-13T06:22:10;19.02;;;8.65;;
22131;SDS011;11232;51.748;19.390;2023-07-13T06:24:36;12.13;;;8.20;;
22131;SDS011;11232;51.748;19.390;2023-07-13T06:27:02;14.88;;;8.30;;
22131;SDS011;11232;51.748;19.390;2023-07-13T06:29:29;12.80;;;8.07;;
22131;SDS011;11232;51.748;19.390;2023-07-13T06:31:55;12.07;;;8.57;;
22131;SDS011;11232;51.748;19.390;2023-07-13T06:34:21;12.40;;;8.35;;
22131;SDS011;11232;51.748;19.390;2023-07-13T06:36:47;10.60;;;8.45;;
22131;SDS011;11232;51.748;19.390;2023-07-13T06:39:13;12.80;;;8.65;;
22131;SDS011;11232;51.748;19.390;2023-07-13T06:41:38;14.60;;;8.02;;
22131;SDS011;11232;51.748;19.390;2023-07-13T06:44:04;14.27;;;8.73;;
22131;SDS011;11232;51.748;19.390;2023-07-13T06:46:31;9.75;;;7.47;;
22131;SDS011;11232;51.748;19.390;2023-07-13T06:48:57;8.63;;;7.53;;
22131;SDS011;11232;51.748;19.390;2023-07-13T06:51:23;9.15;;;6.88;;
22131;SDS011;11232;51.748;19.390;2023-07-13T06:53:51;10.73;;;6.95;;
22131;SDS011;11232;51.748;19.390;2023-07-13T06:56:16;11.82;;;6.95;;
22131;SDS011;11232;51.748;19.390;2023-07-13T06:58:43;9.48;;;7.28;;
22131;SDS011;11232;51.748;19.390;2023-07-13T07:01:09;9.48;;;6.90;;
22131;SDS011;11232;51.748;19.390;2023-07-13T07:03:35;12.95;;;7.72;;
22131;SDS011;11232;51.748;19.390;2023-07-13T07:06:02;11.55;;;7.05;;
22131;SDS011;11232;51.748;19.390;2023-07-13T07:08:28;9.30;;;6.75;;
22131;SDS011;11232;51.748;19.390;2023-07-13T07:10:55;10.75;;;7.75;;
22131;SDS011;11232;51.748;19.390;2023-07-13T07:13:20;9.40;;;7.10;;
22131;SDS011;11232;51.748;19.390;2023-07-13T07:15:46;10.82;;;6.75;;
22131;SDS011;11232;51.748;19.390;2023-07-13T07:18:12;12.40;;;8.30;;
22131;SDS011;11232;51.748;19.390;2023-07-13T07:20:38;11.85;;;6.65;;
22131;SDS011;11232;51.748;19.390;2023-07-13T07:23:04;8.45;;;6.57;;
22131;SDS011;11232;51.748;19.390;2023-07-13T07:25:30;12.55;;;7.38;;
22131;SDS011;11232;51.748;19.390;2023-07-13T07:27:57;10.27;;;7.10;;
22131;SDS011;11232;51.748;19.390;2023-07-13T07:30:24;12.35;;;7.05;;
22131;SDS011;11232;51.748;19.390;2023-07-13T07:32:50;9.90;;;6.82;;
22131;SDS011;11232;51.748;19.390;2023-07-13T07:35:16;7.68;;;6.15;;
22131;SDS011;11232;51.748;19.390;2023-07-13T07:37:42;16.50;;;6.20;;
22131;SDS011;11232;51.748;19.390;2023-07-13T07:40:08;5.70;;;5.10;;
22131;SDS011;11232;51.748;19.390;2023-07-13T07:42:34;8.25;;;5.65;;
22131;SDS011;11232;51.748;19.390;2023-07-13T07:45:00;7.72;;;5.18;;
22131;SDS011;11232;51.748;19.390;2023-07-13T07:47:26;6.57;;;5.07;;
22131;SDS011;11232;51.748;19.390;2023-07-13T07:49:52;11.48;;;6.10;;
22131;SDS011;11232;51.748;19.390;2023-07-13T07:52:18;7.53;;;5.28;;
22131;SDS011;11232;51.748;19.390;2023-07-13T07:54:44;7.82;;;5.03;;
22131;SDS011;11232;51.748;19.390;2023-07-13T07:57:10;6.38;;;5.45;;
22131;SDS011;11232;51.748;19.390;2023-07-13T07:59:37;8.50;;;5.30;;
22131;SDS011;11232;51.748;19.390;2023-07-13T08:02:03;10.52;;;5.32;;
22131;SDS011;11232;51.748;19.390;2023-07-13T08:04:29;16.30;;;7.70;;
22131;SDS011;11232;51.748;19.390;2023-07-13T08:06:55;16.70;;;8.82;;
22131;SDS011;11232;51.748;19.390;2023-07-13T08:09:22;16.88;;;9.50;;
22131;SDS011;11232;51.748;19.390;2023-07-13T08:11:48;28.25;;;8.20;;
22131;SDS011;11232;51.748;19.390;2023-07-13T08:14:14;18.08;;;8.30;;
22131;SDS011;11232;51.748;19.390;2023-07-13T08:16:40;26.17;;;7.18;;
22131;SDS011;11232;51.748;19.390;2023-07-13T08:19:06;10.02;;;6.07;;
22131;SDS011;11232;51.748;19.390;2023-07-13T08:21:32;10.15;;;5.95;;
22131;SDS011;11232;51.748;19.390;2023-07-13T08:23:58;14.98;;;5.82;;
22131;SDS011;11232;51.748;19.390;2023-07-13T08:26:24;9.65;;;5.63;;
22131;SDS011;11232;51.748;19.390;2023-07-13T08:28:50;7.88;;;4.70;;
22131;SDS011;11232;51.748;19.390;2023-07-13T08:31:16;9.90;;;4.72;;
22131;SDS011;11232;51.748;19.390;2023-07-13T08:33:42;8.65;;;4.45;;
22131;SDS011;11232;51.748;19.390;2023-07-13T08:36:08;8.85;;;4.60;;
22131;SDS011;11232;51.748;19.390;2023-07-13T08:38:34;8.80;;;4.82;;
22131;SDS011;11232;51.748;19.390;2023-07-13T08:41:02;8.30;;;3.97;;
22131;SDS011;11232;51.748;19.390;2023-07-13T08:43:36;10.60;;;3.80;;
22131;SDS011;11232;51.748;19.390;2023-07-13T08:48:56;14.23;;;4.32;;
22131;SDS011;11232;51.748;19.390;2023-07-13T08:54:08;6.88;;;3.80;;
22131;SDS011;11232;51.748;19.390;2023-07-13T08:56:36;9.90;;;3.75;;
22131;SDS011;11232;51.748;19.390;2023-07-13T08:59:06;9.35;;;4.05;;
22131;SDS011;11232;51.748;19.390;2023-07-13T09:02:14;4.43;;;3.58;;
22131;SDS011;11232;51.748;19.390;2023-07-13T09:04:29;5.35;;;3.97;;
22131;SDS011;11232;51.748;19.390;2023-07-13T09:06:58;7.80;;;3.65;;
22131;SDS011;11232;51.748;19.390;2023-07-13T09:12:02;6.05;;;3.38;;
22131;SDS011;11232;51.748;19.390;2023-07-13T09:14:37;6.95;;;3.88;;
22131;SDS011;11232;51.748;19.390;2023-07-13T09:17:05;8.27;;;4.10;;
22131;SDS011;11232;51.748;19.390;2023-07-13T09:19:32;5.55;;;3.58;;
22131;SDS011;11232;51.748;19.390;2023-07-13T09:21:59;7.18;;;4.30;;
22131;SDS011;11232;51.748;19.390;2023-07-13T09:24:38;6.30;;;3.63;;
22131;SDS011;11232;51.748;19.390;2023-07-13T09:27:12;10.63;;;4.28;;
22131;SDS011;11232;51.748;19.390;2023-07-13T09:29:42;9.45;;;3.80;;
22131;SDS011;11232;51.748;19.390;2023-07-13T09:32:11;5.00;;;3.47;;
22131;SDS011;11232;51.748;19.390;2023-07-13T09:34:39;4.60;;;3.90;;
22131;SDS011;11232;51.748;19.390;2023-07-13T09:37:04;6.60;;;3.72;;
22131;SDS011;11232;51.748;19.390;2023-07-13T09:39:35;12.30;;;4.03;;
22131;SDS011;11232;51.748;19.390;2023-07-13T09:42:07;8.57;;;3.80;;
22131;SDS011;11232;51.748;19.390;2023-07-13T09:44:39;10.57;;;4.10;;
22131;SDS011;11232;51.748;19.390;2023-07-13T09:47:26;7.85;;;3.85;;
22131;SDS011;11232;51.748;19.390;2023-07-13T09:50:01;7.57;;;3.95;;
22131;SDS011;11232;51.748;19.390;2023-07-13T09:52:28;5.63;;;3.72;;
22131;SDS011;11232;51.748;19.390;2023-07-13T09:55:04;8.60;;;4.07;;
22131;SDS011;11232;51.748;19.390;2023-07-13T09:57:30;8.60;;;4.03;;
22131;SDS011;11232;51.748;19.390;2023-07-13T09:59:56;8.52;;;3.88;;
22131;SDS011;11232;51.748;19.390;2023-07-13T10:04:55;5.20;;;3.40;;
22131;SDS011;11232;51.748;19.390;2023-07-13T10:07:22;7.85;;;3.40;;
22131;SDS011;11232;51.748;19.390;2023-07-13T10:09:55;5.90;;;3.47;;
22131;SDS011;11232;51.748;19.390;2023-07-13T10:12:22;5.82;;;3.50;;
22131;SDS011;11232;51.748;19.390;2023-07-13T10:14:50;4.32;;;3.30;;
22131;SDS011;11232;51.748;19.390;2023-07-13T10:17:16;4.95;;;3.55;;
22131;SDS011;11232;51.748;19.390;2023-07-13T10:19:43;6.00;;;3.72;;
22131;SDS011;11232;51.748;19.390;2023-07-13T10:22:26;7.22;;;3.83;;
22131;SDS011;11232;51.748;19.390;2023-07-13T10:24:52;5.75;;;3.28;;
22131;SDS011;11232;51.748;19.390;2023-07-13T10:27:20;4.88;;;3.35;;
22131;SDS011;11232;51.748;19.390;2023-07-13T10:29:55;4.22;;;3.08;;
22131;SDS011;11232;51.748;19.390;2023-07-13T10:32:24;6.30;;;3.42;;
22131;SDS011;11232;51.748;19.390;2023-07-13T10:34:50;7.50;;;3.45;;
22131;SDS011;11232;51.748;19.390;2023-07-13T10:37:22;17.73;;;4.20;;
22131;SDS011;11232;51.748;19.390;2023-07-13T10:39:50;5.60;;;3.72;;
22131;SDS011;11232;51.748;19.390;2023-07-13T10:42:20;5.90;;;3.97;;
22131;SDS011;11232;51.748;19.390;2023-07-13T10:44:49;5.07;;;3.53;;
22131;SDS011;11232;51.748;19.390;2023-07-13T10:47:15;5.15;;;3.75;;
22131;SDS011;11232;51.748;19.390;2023-07-13T10:49:43;4.95;;;3.22;;
22131;SDS011;11232;51.748;19.390;2023-07-13T10:58:13;4.43;;;3.50;;
22131;SDS011;11232;51.748;19.390;2023-07-13T11:00:53;5.90;;;4.13;;
22131;SDS011;11232;51.748;19.390;2023-07-13T11:03:22;8.18;;;3.83;;
22131;SDS011;11232;51.748;19.390;2023-07-13T11:05:51;5.28;;;3.92;;
22131;SDS011;11232;51.748;19.390;2023-07-13T11:08:33;7.28;;;3.92;;
22131;SDS011;11232;51.748;19.390;2023-07-13T11:11:02;4.57;;;3.92;;
22131;SDS011;11232;51.748;19.390;2023-07-13T11:18:45;5.43;;;3.80;;
22131;SDS011;11232;51.748;19.390;2023-07-13T11:21:14;10.68;;;3.70;;
22131;SDS011;11232;51.748;19.390;2023-07-13T11:23:42;6.22;;;3.28;;
22131;SDS011;11232;51.748;19.390;2023-07-13T11:26:37;6.20;;;3.63;;
22131;SDS011;11232;51.748;19.390;2023-07-13T11:31:42;6.53;;;3.70;;
22131;SDS011;11232;51.748;19.390;2023-07-13T11:34:12;6.88;;;3.55;;
22131;SDS011;11232;51.748;19.390;2023-07-13T11:36:39;7.35;;;4.28;;
22131;SDS011;11232;51.748;19.390;2023-07-13T11:41:42;4.20;;;3.60;;
22131;SDS011;11232;51.748;19.390;2023-07-13T11:44:13;5.90;;;3.80;;
22131;SDS011;11232;51.748;19.390;2023-07-13T11:46:43;4.72;;;3.35;;
22131;SDS011;11232;51.748;19.390;2023-07-13T11:49:11;4.03;;;3.13;;
22131;SDS011;11232;51.748;19.390;2023-07-13T11:51:39;5.18;;;3.03;;
22131;SDS011;11232;51.748;19.390;2023-07-13T11:54:10;7.18;;;3.58;;
22131;SDS011;11232;51.748;19.390;2023-07-13T11:56:39;3.53;;;3.22;;
22131;SDS011;11232;51.748;19.390;2023-07-13T11:59:07;4.13;;;3.35;;
22131;SDS011;11232;51.748;19.390;2023-07-13T12:01:33;3.35;;;3.05;;
22131;SDS011;11232;51.748;19.390;2023-07-13T12:04:00;6.60;;;3.30;;
22131;SDS011;11232;51.748;19.390;2023-07-13T12:06:28;9.98;;;3.45;;
22131;SDS011;11232;51.748;19.390;2023-07-13T12:09:02;4.93;;;3.20;;
22131;SDS011;11232;51.748;19.390;2023-07-13T12:11:28;5.10;;;3.25;;
22131;SDS011;11232;51.748;19.390;2023-07-13T12:13:54;5.20;;;3.05;;
22131;SDS011;11232;51.748;19.390;2023-07-13T12:18:47;5.28;;;2.88;;
22131;SDS011;11232;51.748;19.390;2023-07-13T12:21:16;5.75;;;3.13;;
22131;SDS011;11232;51.748;19.390;2023-07-13T12:23:43;4.32;;;2.85;;
22131;SDS011;11232;51.748;19.390;2023-07-13T12:26:09;5.30;;;3.20;;
22131;SDS011;11232;51.748;19.390;2023-07-13T12:28:37;5.40;;;3.00;;
22131;SDS011;11232;51.748;19.390;2023-07-13T12:31:14;8.73;;;3.13;;
22131;SDS011;11232;51.748;19.390;2023-07-13T12:33:45;10.30;;;2.90;;
22131;SDS011;11232;51.748;19.390;2023-07-13T12:36:11;3.75;;;2.75;;
22131;SDS011;11232;51.748;19.390;2023-07-13T12:38:37;5.25;;;2.80;;
22131;SDS011;11232;51.748;19.390;2023-07-13T12:41:05;3.47;;;3.05;;
22131;SDS011;11232;51.748;19.390;2023-07-13T12:43:35;4.07;;;2.78;;
22131;SDS011;11232;51.748;19.390;2023-07-13T12:46:03;5.55;;;3.38;;
22131;SDS011;11232;51.748;19.390;2023-07-13T12:48:30;5.72;;;3.08;;
22131;SDS011;11232;51.748;19.390;2023-07-13T12:51:03;5.45;;;3.10;;
22131;SDS011;11232;51.748;19.390;2023-07-13T12:53:30;6.20;;;2.95;;
22131;SDS011;11232;51.748;19.390;2023-07-13T12:55:57;7.45;;;3.05;;
22131;SDS011;11232;51.748;19.390;2023-07-13T12:58:28;5.10;;;2.60;;
22131;SDS011;11232;51.748;19.390;2023-07-13T13:00:56;4.20;;;2.97;;
22131;SDS011;11232;51.748;19.390;2023-07-13T13:05:59;8.63;;;2.92;;
22131;SDS011;11232;51.748;19.390;2023-07-13T13:08:25;3.95;;;3.22;;
22131;SDS011;11232;51.748;19.390;2023-07-13T13:10:51;3.60;;;3.03;;
22131;SDS011;11232;51.748;19.390;2023-07-13T13:13:17;5.78;;;3.25;;
22131;SDS011;11232;51.748;19.390;2023-07-13T13:15:43;3.38;;;2.95;;
22131;SDS011;11232;51.748;19.390;2023-07-13T13:18:14;4.05;;;2.95;;
22131;SDS011;11232;51.748;19.390;2023-07-13T13:20:41;4.47;;;3.10;;
22131;SDS011;11232;51.748;19.390;2023-07-13T13:23:10;7.03;;;3.13;;
22131;SDS011;11232;51.748;19.390;2023-07-13T13:25:37;5.75;;;3.38;;
22131;SDS011;11232;51.748;19.390;2023-07-13T13:28:03;4.32;;;2.78;;
22131;SDS011;11232;51.748;19.390;2023-07-13T13:30:29;3.35;;;2.95;;
22131;SDS011;11232;51.748;19.390;2023-07-13T13:32:55;5.93;;;3.13;;
22131;SDS011;11232;51.748;19.390;2023-07-13T13:35:21;6.10;;;3.22;;
22131;SDS011;11232;51.748;19.390;2023-07-13T13:37:47;10.48;;;2.80;;
22131;SDS011;11232;51.748;19.390;2023-07-13T13:40:16;6.25;;;3.00;;
22131;SDS011;11232;51.748;19.390;2023-07-13T13:42:42;5.38;;;2.97;;
22131;SDS011;11232;51.748;19.390;2023-07-13T13:45:12;3.45;;;2.60;;
22131;SDS011;11232;51.748;19.390;2023-07-13T13:47:38;5.88;;;2.90;;
22131;SDS011;11232;51.748;19.390;2023-07-13T13:50:12;3.17;;;2.40;;
22131;SDS011;11232;51.748;19.390;2023-07-13T13:52:39;3.85;;;2.58;;
22131;SDS011;11232;51.748;19.390;2023-07-13T13:55:15;4.45;;;3.03;;
22131;SDS011;11232;51.748;19.390;2023-07-13T13:57:41;2.92;;;2.40;;
22131;SDS011;11232;51.748;19.390;2023-07-13T14:00:10;5.80;;;2.88;;
22131;SDS011;11232;51.748;19.390;2023-07-13T14:02:39;4.53;;;2.97;;
22131;SDS011;11232;51.748;19.390;2023-07-13T14:05:06;4.13;;;2.78;;
22131;SDS011;11232;51.748;19.390;2023-07-13T14:07:32;5.85;;;3.00;;
22131;SDS011;11232;51.748;19.390;2023-07-13T14:09:58;3.58;;;3.10;;
22131;SDS011;11232;51.748;19.390;2023-07-13T14:12:26;5.20;;;3.40;;
22131;SDS011;11232;51.748;19.390;2023-07-13T14:14:54;6.78;;;3.10;;
22131;SDS011;11232;51.748;19.390;2023-07-13T14:17:20;7.13;;;3.60;;
22131;SDS011;11232;51.748;19.390;2023-07-13T14:19:48;5.82;;;3.67;;
22131;SDS011;11232;51.748;19.390;2023-07-13T14:22:21;4.07;;;3.50;;
22131;SDS011;11232;51.748;19.390;2023-07-13T14:24:47;4.00;;;3.13;;
22131;SDS011;11232;51.748;19.390;2023-07-13T14:27:14;4.40;;;2.92;;
22131;SDS011;11232;51.748;19.390;2023-07-13T14:29:40;9.35;;;3.55;;
22131;SDS011;11232;51.748;19.390;2023-07-13T14:32:09;7.07;;;3.30;;
22131;SDS011;11232;51.748;19.390;2023-07-13T14:34:35;5.63;;;3.10;;
22131;SDS011;11232;51.748;19.390;2023-07-13T14:37:01;5.60;;;3.00;;
22131;SDS011;11232;51.748;19.390;2023-07-13T14:39:29;5.32;;;2.83;;
22131;SDS011;11232;51.748;19.390;2023-07-13T14:41:55;5.95;;;3.03;;
22131;SDS011;11232;51.748;19.390;2023-07-13T14:44:24;4.95;;;3.00;;
22131;SDS011;11232;51.748;19.390;2023-07-13T14:46:50;3.53;;;2.80;;
22131;SDS011;11232;51.748;19.390;2023-07-13T14:51:43;5.28;;;3.15;;
22131;SDS011;11232;51.748;19.390;2023-07-13T14:54:09;5.93;;;3.55;;
22131;SDS011;11232;51.748;19.390;2023-07-13T14:56:36;6.63;;;3.30;;
22131;SDS011;11232;51.748;19.390;2023-07-13T14:59:02;5.75;;;2.83;;
22131;SDS011;11232;51.748;19.390;2023-07-13T15:01:29;7.30;;;3.58;;
22131;SDS011;11232;51.748;19.390;2023-07-13T15:03:55;5.43;;;3.30;;
22131;SDS011;11232;51.748;19.390;2023-07-13T15:06:21;8.77;;;3.38;;